Welcome to Des Moines Iowa Weather. I am an independent private personal weather station on the Northwest Side of Des Moines, Iowa. Just East of Windsor Heights and just West of Glendale . This site is also mobile friendly.

There are no active watches, warnings or advisories


Visit our other weather sites:

Historical Data

Weather Station Setup



Weather Underground History page Text

Daily Summary for January 24, 2018 Units:  Metric    English   Both
« Previous Day
Next Day »
Daily Weekly Monthly Yearly Custom
  High: Low: Average:
Temperature: 0.2 °C -4.1 °C -2.2 °C
Dew Point: -2.2 °C -5.6 °C -3.8 °C
Humidity: 91 % 84 % 89 %
Wind Speed: 4.8 km/h 0 km/h 1 km/h
Wind Gust: 11.3 km/h - -
Wind:- - WSW
Pressure: 1028 hPa 1022.6 hPa -
Precipitation: 0 mm    
Historical Graphs
 
 
Tabular Data for January 24, 2018
Time Temperature Dew Point Pressure Wind Wind Speed Wind Gust Humidity Rainfall Rate (Hourly)
00:27 -3.7 °C -5.6 °C 1024.6 hPa Calm   3.2 km/h 88 % 0 mm
00:42 -3.6 °C -5 °C 1024.6 hPa Calm   4.8 km/h 88 % 0 mm
01:27 -3.7 °C -5.6 °C 1024.9 hPa Calm   3.2 km/h 88 % 0 mm
01:42 -3.7 °C -5 °C 1024.9 hPa Calm   1.6 km/h 89 % 0 mm
01:57 -3.7 °C -5 °C 1024.9 hPa Calm   3.2 km/h 89 % 0 mm
02:28 -3.7 °C -5 °C 1025.3 hPa Calm   3.2 km/h 89 % 0 mm
02:43 -3.7 °C -5 °C 1025.6 hPa North 3.2 km/h 4.8 km/h 89 % 0 mm
03:13 -3.7 °C -5 °C 1025.3 hPa Calm   4.8 km/h 89 % 0 mm
03:28 -3.8 °C -5.6 °C 1025.6 hPa North 3.2 km/h 6.4 km/h 89 % 0 mm
03:43 -3.8 °C -5.6 °C 1025.3 hPa North 1.6 km/h 6.4 km/h 89 % 0 mm
03:58 -3.8 °C -5.6 °C 1025.3 hPa Calm   4.8 km/h 89 % 0 mm
04:13 -3.8 °C -5.6 °C 1025.6 hPa Calm   3.2 km/h 89 % 0 mm
04:28 -3.8 °C -5.6 °C 1025.6 hPa North 1.6 km/h 6.4 km/h 89 % 0 mm
04:43 -3.8 °C -5.6 °C 1025.6 hPa Calm   8 km/h 89 % 0 mm
04:58 -3.9 °C -5.6 °C 1025.3 hPa Calm   6.4 km/h 89 % 0 mm
05:13 -3.9 °C -5 °C 1025.3 hPa Calm   3.2 km/h 90 % 0 mm
05:28 -3.9 °C -5.6 °C 1025.3 hPa Calm   1.6 km/h 89 % 0 mm
05:43 -3.9 °C -5.6 °C 1025.3 hPa Calm   3.2 km/h 90 % 0 mm
05:58 -4 °C -5.6 °C 1025.6 hPa Calm   1.6 km/h 90 % 0 mm
06:13 -3.9 °C -5.6 °C 1026 hPa North 1.6 km/h 3.2 km/h 90 % 0 mm
06:28 -4 °C -5.6 °C 1026 hPa North 1.6 km/h 4.8 km/h 90 % 0 mm
06:43 -4.1 °C -5.6 °C 1026.3 hPa North 3.2 km/h 4.8 km/h 90 % 0 mm
06:58 -4.1 °C -5.6 °C 1026.6 hPa Calm   8 km/h 90 % 0 mm
07:13 -4 °C -5.6 °C 1026.6 hPa North 3.2 km/h 8 km/h 90 % 0 mm
07:28 -4 °C -5 °C 1027 hPa North 4.8 km/h 8 km/h 91 % 0 mm
07:43 -3.9 °C -5 °C 1027 hPa Calm   3.2 km/h 91 % 0 mm
07:58 -3.9 °C -5 °C 1027 hPa Calm   3.2 km/h 91 % 0 mm
08:13 -3.8 °C -5 °C 1027 hPa Calm   4.8 km/h 91 % 0 mm
08:28 -3.8 °C -5 °C 1027.3 hPa North 1.6 km/h 4.8 km/h 91 % 0 mm
08:43 -3.8 °C -5 °C 1027.3 hPa North 1.6 km/h 6.4 km/h 91 % 0 mm
09:13 -3.8 °C -5 °C 1027.3 hPa Calm   8 km/h 91 % 0 mm
09:28 -3.7 °C -5 °C 1027.3 hPa North 3.2 km/h 3.2 km/h 91 % 0 mm
09:43 -3.5 °C -4.4 °C 1027.3 hPa Calm   4.8 km/h 91 % 0 mm
10:13 -3.2 °C -4.4 °C 1027.7 hPa Calm   3.2 km/h 91 % 0 mm
10:28 -3.2 °C -4.4 °C 1027.7 hPa North 3.2 km/h 4.8 km/h 91 % 0 mm
10:43 -3.1 °C -4.4 °C 1027.7 hPa North 3.2 km/h 4.8 km/h 91 % 0 mm
10:58 -2.8 °C -4.4 °C 1028 hPa Calm   6.4 km/h 90 % 0 mm
11:14 -2.6 °C -3.9 °C 1028 hPa North 3.2 km/h 4.8 km/h 90 % 0 mm
11:29 -2.4 °C -3.9 °C 1028 hPa North 3.2 km/h 4.8 km/h 90 % 0 mm
11:59 -2.1 °C -3.9 °C 1027.3 hPa North 3.2 km/h 4.8 km/h 88 % 0 mm
12:14 -1.9 °C -3.3 °C 1027.3 hPa North 1.6 km/h 4.8 km/h 88 % 0 mm
12:44 -1.5 °C -3.3 °C 1026.6 hPa North 3.2 km/h 4.8 km/h 87 % 0 mm
13:29 -1.6 °C -3.3 °C 1026.6 hPa SSE 1.6 km/h 8 km/h 87 % 0 mm
13:44 -1.4 °C -3.3 °C 1026.3 hPa SSE 4.8 km/h 9.7 km/h 87 % 0 mm
13:59 -1.3 °C -3.3 °C 1026.3 hPa Calm   4.8 km/h 86 % 0 mm
14:29 -0.7 °C -2.8 °C 1026 hPa Calm   6.4 km/h 85 % 0 mm
14:44 -0.8 °C -2.8 °C 1025.6 hPa SSE 1.6 km/h 8 km/h 85 % 0 mm
14:59 -0.4 °C -2.8 °C 1025.6 hPa Calm   9.7 km/h 85 % 0 mm
15:14 -0.2 °C -2.2 °C 1026 hPa SSE 3.2 km/h 6.4 km/h 85 % 0 mm
15:29 -0.2 °C -2.8 °C 1025.6 hPa SSE 1.6 km/h 4.8 km/h 84 % 0 mm
15:44 0 °C -2.2 °C 1025.6 hPa Calm   6.4 km/h 84 % 0 mm
15:59 0.2 °C -2.2 °C 1025.6 hPa Calm   6.4 km/h 84 % 0 mm
16:14 0.1 °C -2.2 °C 1025.3 hPa South 3.2 km/h 4.8 km/h 84 % 0 mm
16:29 0.1 °C -2.2 °C 1025.6 hPa Calm   3.2 km/h 84 % 0 mm
16:44 0 °C -2.2 °C 1025.3 hPa Calm   4.8 km/h 85 % 0 mm
16:59 0.1 °C -2.2 °C 1025.3 hPa South 3.2 km/h 4.8 km/h 85 % 0 mm
17:14 0 °C -2.2 °C 1025.3 hPa Calm   4.8 km/h 85 % 0 mm
17:29 -0.2 °C -2.2 °C 1024.9 hPa Calm   3.2 km/h 86 % 0 mm
17:44 -0.3 °C -2.2 °C 1024.9 hPa Calm   3.2 km/h 86 % 0 mm
17:59 -0.6 °C -2.2 °C 1024.9 hPa Calm   3.2 km/h 87 % 0 mm
18:14 -0.7 °C -2.8 °C 1024.9 hPa Calm   8 km/h 87 % 0 mm
18:29 -0.8 °C -2.8 °C 1024.9 hPa Calm   4.8 km/h 88 % 0 mm
18:44 -0.9 °C -2.8 °C 1024.9 hPa Calm   3.2 km/h 88 % 0 mm
18:59 -0.9 °C -2.2 °C 1024.6 hPa SSE 1.6 km/h 9.7 km/h 89 % 0 mm
19:14 -1 °C -2.8 °C 1024.6 hPa South 1.6 km/h 11.3 km/h 89 % 0 mm
19:29 -1.1 °C -2.8 °C 1024.9 hPa Calm   4.8 km/h 89 % 0 mm
19:44 -1.2 °C -2.8 °C 1024.6 hPa Calm   3.2 km/h 89 % 0 mm
19:59 -1.2 °C -2.8 °C 1024.6 hPa Calm   4.8 km/h 89 % 0 mm
20:14 -1.3 °C -2.8 °C 1024.3 hPa Calm   4.8 km/h 90 % 0 mm
20:29 -1.4 °C -2.8 °C 1024.3 hPa Calm   3.2 km/h 90 % 0 mm
20:44 -1.4 °C -2.8 °C 1023.9 hPa Calm   4.8 km/h 90 % 0 mm
20:59 -1.4 °C -2.8 °C 1023.9 hPa South 1.6 km/h 4.8 km/h 91 % 0 mm
21:14 -1.3 °C -2.8 °C 1023.9 hPa Calm   4.8 km/h 91 % 0 mm
21:29 -1.3 °C -2.8 °C 1023.6 hPa Calm   8 km/h 91 % 0 mm
21:44 -1.4 °C -2.8 °C 1023.6 hPa SSE 1.6 km/h 4.8 km/h 91 % 0 mm
21:59 -1.4 °C -2.8 °C 1023.2 hPa SSE 1.6 km/h 4.8 km/h 91 % 0 mm
22:14 -1.4 °C -2.8 °C 1023.6 hPa Calm   4.8 km/h 91 % 0 mm
22:29 -1.4 °C -2.8 °C 1023.2 hPa Calm   3.2 km/h 91 % 0 mm
22:44 -1.4 °C -2.8 °C 1022.9 hPa Calm   4.8 km/h 91 % 0 mm
22:59 -1.6 °C -2.8 °C 1022.9 hPa Calm   3.2 km/h 91 % 0 mm
23:14 -1.6 °C -2.8 °C 1022.9 hPa Calm   4.8 km/h 91 % 0 mm
23:30 -1.7 °C -2.8 °C 1022.6 hPa Calm   1.6 km/h 91 % 0 mm
23:45 -1.8 °C -2.8 °C 1022.6 hPa SSE 1.6 km/h 3.2 km/h 91 % 0 mm
Des Moines Weather and Climate
Compliments of Weather Underground - 3 mb

Script developed by  Jim McMurry - jmcmurry@mwt.net Adapted for the template by  Wim van der Kuil - Leuven-Template.eu

You find our weather info also at:

Weather Underground

Equipment we use:

Weather-station
Davis VP2 Plus

Weather-program
Davis Weatherlink.Com

Weather-server
iMac (Retina 4K, 21.5-inch, Late 2015)

Provider
Hostmonster.com

Davis VP2 Plus

Davis Weatherlink.Com

iMac (Retina 4K, 21.5-inch, Late 2015)

Hostmonster.com